createdAt,value
2022-08-17T00:01:51.912Z,73.92
2022-08-17T00:04:21.016Z,74.67
2022-08-17T00:06:49.599Z,74.46
2022-08-17T00:09:18.601Z,74.51
2022-08-17T00:12:34.866Z,75.01
2022-08-17T00:14:36.248Z,75.94
2022-08-17T00:17:06.467Z,77.42
2022-08-17T00:19:34.059Z,76.56
2022-08-17T00:22:35.053Z,75.96
2022-08-17T00:24:51.663Z,75.47
2022-08-17T00:27:20.194Z,75.32
2022-08-17T00:29:52.109Z,76.26
2022-08-17T00:33:13.839Z,75.07
2022-08-17T00:35:11.340Z,75.49
2022-08-17T00:37:38.979Z,76.29
2022-08-17T00:40:06.730Z,76.22
2022-08-17T00:42:33.718Z,76.97
2022-08-17T00:45:00.478Z,76.24
2022-08-17T00:47:29.414Z,75.99
2022-08-17T00:49:57.004Z,76.75
2022-08-17T00:52:28.927Z,75.95
2022-08-17T00:54:56.127Z,76.77
2022-08-17T00:57:28.367Z,76.66
2022-08-17T01:00:02.550Z,76.76
2022-08-17T01:02:50.870Z,76.91
2022-08-17T01:05:22.390Z,76.18
2022-08-17T01:07:50.763Z,76.69
2022-08-17T01:10:59.577Z,77.39
2022-08-17T01:13:08.119Z,78.14
2022-08-17T01:15:38.368Z,77.91
2022-08-17T01:18:07.902Z,77.96
2022-08-17T01:20:48.249Z,78.27
2022-08-17T01:23:21.057Z,78.79
2022-08-17T01:25:55.240Z,78.67
2022-08-17T01:28:52.919Z,78.52
2022-08-17T01:31:11.677Z,78.46
2022-08-17T01:33:39.048Z,78.12
2022-08-17T01:36:08.037Z,77.54
2022-08-17T01:38:37.368Z,78.12
2022-08-17T01:41:12.515Z,77.11
2022-08-17T01:43:58.028Z,78.59
2022-08-17T01:46:28.746Z,77.99
2022-08-17T01:48:57.493Z,78.55
2022-08-17T01:51:32.696Z,78.62
2022-08-17T01:54:05.238Z,78.97
2022-08-17T01:56:37.428Z,80.21
2022-08-17T01:59:06.362Z,80.59
2022-08-17T02:01:35.117Z,82.34
2022-08-17T02:04:04.926Z,82.00
2022-08-17T02:06:45.303Z,81.02
2022-08-17T02:09:26.298Z,81.72
2022-08-17T02:12:38.591Z,80.83
2022-08-17T02:14:50.318Z,81.06
2022-08-17T02:17:18.204Z,80.50
2022-08-17T02:19:45.216Z,80.99
2022-08-17T02:22:12.500Z,80.86
2022-08-17T02:25:00.651Z,80.49
2022-08-17T02:27:28.040Z,79.63
2022-08-17T02:29:55.321Z,79.89
2022-08-17T02:32:25.478Z,80.33
2022-08-17T02:34:57.236Z,80.51
2022-08-17T02:37:26.333Z,80.62
2022-08-17T02:39:54.231Z,81.21
2022-08-17T02:42:31.394Z,81.15
2022-08-17T02:44:58.088Z,81.55
2022-08-17T02:47:25.408Z,81.41
2022-08-17T02:49:55.908Z,81.50
2022-08-17T02:52:43.101Z,81.34
2022-08-17T02:55:22.256Z,81.60
2022-08-17T02:57:51.327Z,81.49
2022-08-17T03:00:22.450Z,81.89
2022-08-17T03:02:51.669Z,83.20
2022-08-17T03:05:21.276Z,82.53
2022-08-17T03:07:48.761Z,82.12
2022-08-17T03:10:17.254Z,81.30
2022-08-17T03:12:45.913Z,80.93
2022-08-17T03:15:17.567Z,80.72
2022-08-17T03:17:44.595Z,81.07
2022-08-17T03:20:12.892Z,81.29
2022-08-17T03:22:42.975Z,81.11
2022-08-17T03:25:21.413Z,81.10
2022-08-17T03:27:50.275Z,81.28
2022-08-17T03:30:19.524Z,82.36
2022-08-17T03:32:50.449Z,82.26
2022-08-17T03:35:19.482Z,81.40
2022-08-17T03:37:46.588Z,82.10
2022-08-17T03:40:34.429Z,81.99
2022-08-17T03:43:18.818Z,81.93
2022-08-17T03:46:04.588Z,81.99
2022-08-17T03:48:53.858Z,82.28
2022-08-17T03:51:42.697Z,81.66
2022-08-17T03:54:29.664Z,81.76
2022-08-17T03:57:04.371Z,81.88
2022-08-17T03:59:32.005Z,82.50
2022-08-17T04:02:04.987Z,83.91
2022-08-17T04:04:33.441Z,83.44
2022-08-17T04:07:00.248Z,83.96
2022-08-17T04:09:27.591Z,83.84
2022-08-17T04:11:54.590Z,83.92
2022-08-17T04:14:25.575Z,84.27
2022-08-17T04:16:53.725Z,84.45
2022-08-17T04:19:23.433Z,84.93
2022-08-17T04:21:50.232Z,84.82
2022-08-17T04:24:17.760Z,84.88
2022-08-17T04:26:52.141Z,84.43
2022-08-17T04:29:23.273Z,84.84
2022-08-17T04:31:53.072Z,85.28
2022-08-17T04:34:20.214Z,85.25
2022-08-17T04:36:50.312Z,84.46
2022-08-17T04:39:19.155Z,84.53
2022-08-17T04:42:04.736Z,84.34
2022-08-17T04:44:37.579Z,85.71
2022-08-17T04:47:05.322Z,84.98
2022-08-17T04:49:33.358Z,84.89
2022-08-17T04:52:04.596Z,82.50
2022-08-17T04:54:32.100Z,82.86
2022-08-17T04:56:59.903Z,83.67
2022-08-17T04:59:26.726Z,83.28
2022-08-17T05:01:56.007Z,82.74
2022-08-17T05:04:34.187Z,83.35
2022-08-17T05:07:04.426Z,83.71
2022-08-17T05:09:32.092Z,84.12
2022-08-17T05:12:02.611Z,84.11
2022-08-17T05:14:33.326Z,84.06
2022-08-17T05:17:04.599Z,85.11
2022-08-17T05:19:38.297Z,84.56
2022-08-17T05:22:05.724Z,84.27
2022-08-17T05:24:42.586Z,83.98
2022-08-17T05:27:20.171Z,83.32
2022-08-17T05:29:47.047Z,82.98
2022-08-17T05:32:38.675Z,83.74
2022-08-17T05:35:01.916Z,83.94
2022-08-17T05:37:28.503Z,84.00
2022-08-17T05:39:55.231Z,84.63
2022-08-17T05:42:23.105Z,85.57
2022-08-17T05:44:49.807Z,85.89
2022-08-17T05:47:17.443Z,86.67
2022-08-17T05:49:44.249Z,86.92
2022-08-17T05:52:45.511Z,86.22
2022-08-17T05:55:36.772Z,85.18
2022-08-17T05:58:24.445Z,85.02
2022-08-17T06:01:35.413Z,84.98
2022-08-17T06:04:22.358Z,84.38
2022-08-17T06:06:52.489Z,84.22
2022-08-17T06:09:36.067Z,84.03
2022-08-17T06:12:26.273Z,83.67
2022-08-17T06:14:58.861Z,84.04
2022-08-17T06:17:29.152Z,83.57
2022-08-17T06:20:03.176Z,83.09
2022-08-17T06:22:36.871Z,82.86
2022-08-17T06:25:17.978Z,81.98
2022-08-17T06:27:53.510Z,77.50
2022-08-17T06:30:27.701Z,77.69
2022-08-17T06:33:01.313Z,77.78
2022-08-17T06:35:44.511Z,73.65
2022-08-17T06:38:38.531Z,73.23
2022-08-17T06:41:12.600Z,73.24
2022-08-17T06:44:03.816Z,72.89
2022-08-17T06:46:38.353Z,72.18
2022-08-17T06:49:22.007Z,69.79
2022-08-17T06:52:45.255Z,68.78
2022-08-17T06:55:21.439Z,67.07
2022-08-17T06:57:55.608Z,65.54
2022-08-17T07:00:26.964Z,65.26
2022-08-17T07:03:02.339Z,65.66
2022-08-17T07:05:48.239Z,65.32
2022-08-17T07:08:20.101Z,64.38
2022-08-17T07:10:57.808Z,63.23
2022-08-17T07:13:29.308Z,62.41
2022-08-17T07:16:04.680Z,62.95
2022-08-17T07:18:33.362Z,61.59
2022-08-17T07:21:14.176Z,59.50
2022-08-17T07:24:29.512Z,59.76
2022-08-17T07:27:05.719Z,59.97
2022-08-17T07:29:38.560Z,60.53
2022-08-17T07:32:08.338Z,57.84
2022-08-17T07:35:37.934Z,57.21
2022-08-17T07:38:25.530Z,56.29
2022-08-17T07:41:01.950Z,56.70
2022-08-17T07:43:31.733Z,56.29
2022-08-17T07:46:38.065Z,54.78
2022-08-17T07:49:09.416Z,54.43
2022-08-17T07:51:43.224Z,55.30
2022-08-17T07:54:15.765Z,53.31
2022-08-17T07:56:53.656Z,53.71
2022-08-17T07:59:28.646Z,53.85
2022-08-17T08:02:15.689Z,53.21
2022-08-17T08:05:00.945Z,51.72
2022-08-17T08:07:34.687Z,52.18
2022-08-17T08:10:08.081Z,51.51
2022-08-17T08:12:37.681Z,50.49
2022-08-17T08:15:20.971Z,50.11
2022-08-17T08:17:55.645Z,49.80
2022-08-17T08:20:51.338Z,49.58
2022-08-17T08:23:42.821Z,50.43
2022-08-17T08:26:23.067Z,49.29
2022-08-17T08:29:12.505Z,48.46
2022-08-17T08:31:55.244Z,50.73
2022-08-17T08:34:53.348Z,51.00
2022-08-17T08:37:36.699Z,50.59
2022-08-17T08:40:38.327Z,47.84
2022-08-17T08:43:23.396Z,47.35
2022-08-17T08:46:03.523Z,47.10
2022-08-17T08:48:55.956Z,46.66
2022-08-17T08:51:46.158Z,47.28
2022-08-17T08:54:38.748Z,46.40
2022-08-17T08:57:24.360Z,46.96
2022-08-17T09:00:14.881Z,44.47
2022-08-17T09:02:55.650Z,43.09
2022-08-17T09:05:32.522Z,43.53
2022-08-17T09:08:06.312Z,43.96
2022-08-17T09:10:52.019Z,43.57
2022-08-17T09:13:30.311Z,42.60
2022-08-17T09:16:01.965Z,43.05
2022-08-17T09:19:01.132Z,42.77
2022-08-17T09:21:22.633Z,43.06
2022-08-17T09:24:01.415Z,41.30
2022-08-17T09:26:33.076Z,41.34
2022-08-17T09:29:02.761Z,39.11
2022-08-17T09:31:35.503Z,35.45
2022-08-17T09:34:18.836Z,30.78
2022-08-17T09:36:52.468Z,30.41
2022-08-17T09:39:25.383Z,30.11
2022-08-17T09:42:03.239Z,28.82
2022-08-17T09:44:47.748Z,30.25
2022-08-17T09:47:35.049Z,31.44
2022-08-17T09:50:08.293Z,30.50
2022-08-17T09:52:35.806Z,30.48
2022-08-17T09:55:05.971Z,31.91
2022-08-17T09:57:43.199Z,31.19
2022-08-17T10:00:27.484Z,31.86
2022-08-17T10:03:16.729Z,31.59
2022-08-17T10:06:08.511Z,31.63
2022-08-17T10:08:57.565Z,31.50
2022-08-17T10:11:57.532Z,31.79
2022-08-17T10:14:36.758Z,32.45
2022-08-17T10:17:26.439Z,31.87
2022-08-17T10:20:02.253Z,33.22
2022-08-17T10:22:55.072Z,33.75
2022-08-17T10:25:54.648Z,32.77
2022-08-17T10:28:29.552Z,30.95
2022-08-17T10:34:25.251Z,30.54
2022-08-17T10:37:16.783Z,29.74
2022-08-17T10:40:10.655Z,29.77
2022-08-17T10:42:56.429Z,28.31
2022-08-17T10:45:29.582Z,27.39
2022-08-17T10:48:30.126Z,28.63
2022-08-17T10:50:59.834Z,28.24
2022-08-17T10:53:32.743Z,28.96
2022-08-17T10:56:11.628Z,29.30
2022-08-17T10:58:54.455Z,28.53
2022-08-17T11:01:37.824Z,28.05
2022-08-17T11:04:19.629Z,29.37
2022-08-17T11:07:02.063Z,28.30
2022-08-17T11:10:06.082Z,29.48
2022-08-17T11:12:55.435Z,28.06
2022-08-17T11:15:59.427Z,27.86
2022-08-17T11:18:52.563Z,28.10
2022-08-17T11:21:40.222Z,27.38
2022-08-17T11:24:34.964Z,28.56
2022-08-17T11:27:23.970Z,27.65
2022-08-17T11:30:02.287Z,27.35
2022-08-17T11:32:37.315Z,26.20
2022-08-17T11:35:11.858Z,26.58
2022-08-17T11:38:16.238Z,26.53
2022-08-17T11:41:07.576Z,25.68
2022-08-17T11:43:55.913Z,27.02
2022-08-17T11:47:10.147Z,26.24
2022-08-17T11:49:57.922Z,24.85
2022-08-17T11:52:45.985Z,24.23
2022-08-17T11:55:40.714Z,25.79
2022-08-17T11:58:37.225Z,23.95
2022-08-17T12:01:24.571Z,24.89
2022-08-17T12:04:15.669Z,24.34
2022-08-17T12:06:50.667Z,24.79
2022-08-17T12:09:25.021Z,25.76
2022-08-17T12:12:14.443Z,25.00
2022-08-17T12:17:42.972Z,23.73
2022-08-17T12:20:33.314Z,23.94
2022-08-17T12:23:28.475Z,23.72
2022-08-17T12:26:01.236Z,24.39
2022-08-17T12:28:33.415Z,23.28
2022-08-17T12:31:23.808Z,22.31
2022-08-17T12:33:51.843Z,21.94
2022-08-17T12:36:24.743Z,23.61
2022-08-17T12:39:13.074Z,24.24
2022-08-17T12:41:46.849Z,25.21
2022-08-17T12:44:21.960Z,25.06
2022-08-17T12:47:19.388Z,25.60
2022-08-17T12:49:50.574Z,27.17
2022-08-17T12:52:27.150Z,27.40
2022-08-17T12:55:07.533Z,27.65
2022-08-17T12:57:38.573Z,27.04
2022-08-17T13:00:17.850Z,27.72
2022-08-17T13:02:51.353Z,27.01
2022-08-17T13:05:25.944Z,27.34
2022-08-17T13:07:54.545Z,27.62
2022-08-17T13:10:33.053Z,28.37
2022-08-17T13:13:04.483Z,28.50
2022-08-17T13:15:38.162Z,27.67
2022-08-17T13:18:40.189Z,28.53
2022-08-17T13:21:26.893Z,28.68
2022-08-17T13:24:04.551Z,29.43
2022-08-17T13:26:37.362Z,29.20
2022-08-17T13:29:07.634Z,29.83
2022-08-17T13:31:52.328Z,29.67
2022-08-17T13:34:23.821Z,30.29
2022-08-17T13:37:27.149Z,28.44
2022-08-17T13:40:15.063Z,28.60
2022-08-17T13:42:54.320Z,28.01
2022-08-17T13:45:35.637Z,28.54
2022-08-17T13:48:27.113Z,28.87
2022-08-17T13:50:57.117Z,29.92
2022-08-17T13:53:31.118Z,29.11
2022-08-17T13:56:38.032Z,28.43
2022-08-17T13:59:36.082Z,28.25
2022-08-17T14:02:17.295Z,28.27
2022-08-17T14:04:46.992Z,28.07
2022-08-17T14:07:15.958Z,28.14
2022-08-17T14:09:53.209Z,28.21
2022-08-17T14:12:21.833Z,27.00
2022-08-17T14:14:49.504Z,27.56
2022-08-17T14:17:16.426Z,28.39
2022-08-17T14:19:43.809Z,27.19
2022-08-17T14:22:28.174Z,27.98
2022-08-17T14:24:58.599Z,27.27
2022-08-17T14:27:28.012Z,28.27
2022-08-17T14:29:56.393Z,28.37
2022-08-17T14:32:29.921Z,28.28
2022-08-17T14:34:59.595Z,28.29
2022-08-17T14:37:28.839Z,28.38
2022-08-17T14:40:00.184Z,27.87
2022-08-17T14:42:30.051Z,27.32
2022-08-17T14:44:58.601Z,27.32
2022-08-17T14:47:26.575Z,27.28
2022-08-17T14:49:53.275Z,28.16
2022-08-17T14:52:21.787Z,28.94
2022-08-17T14:54:51.269Z,28.17
2022-08-17T14:57:33.115Z,26.69
2022-08-17T15:00:03.513Z,27.33
2022-08-17T15:02:44.727Z,27.59
2022-08-17T15:05:16.473Z,26.68
2022-08-17T15:07:44.709Z,28.00
2022-08-17T15:10:13.878Z,27.52
2022-08-17T15:12:41.924Z,27.17
2022-08-17T15:15:13.175Z,28.12
2022-08-17T15:17:44.757Z,27.20
2022-08-17T15:20:15.463Z,28.42
2022-08-17T15:22:43.100Z,27.48
2022-08-17T15:25:10.555Z,27.57
2022-08-17T15:27:38.664Z,26.85
2022-08-17T15:30:07.410Z,27.49
2022-08-17T15:32:38.020Z,28.44
2022-08-17T15:35:07.819Z,26.89
2022-08-17T15:37:36.386Z,27.27
2022-08-17T15:40:04.526Z,27.87
2022-08-17T15:42:31.751Z,29.12
2022-08-17T15:45:06.551Z,27.41
2022-08-17T15:47:34.099Z,28.62
2022-08-17T15:50:06.159Z,27.61
2022-08-17T15:52:37.968Z,28.65
2022-08-17T15:55:09.854Z,29.10
2022-08-17T15:57:36.567Z,28.78
2022-08-17T16:00:06.190Z,29.35
2022-08-17T16:03:44.452Z,30.56
2022-08-17T16:05:31.243Z,31.05
2022-08-17T16:07:59.890Z,28.63
2022-08-17T16:10:35.365Z,30.16
2022-08-17T16:13:04.412Z,30.19
2022-08-17T16:15:33.006Z,30.67
2022-08-17T16:18:05.211Z,30.42
2022-08-17T16:20:33.371Z,31.32
2022-08-17T16:23:00.270Z,31.34
2022-08-17T16:25:52.029Z,31.91
2022-08-17T16:28:18.619Z,32.30
2022-08-17T16:30:45.878Z,32.23
2022-08-17T16:33:12.643Z,33.40
2022-08-17T16:35:41.866Z,34.02
2022-08-17T16:38:11.260Z,34.10
2022-08-17T16:40:38.064Z,35.17
2022-08-17T16:43:10.316Z,34.42
2022-08-17T16:45:40.246Z,32.52
2022-08-17T16:48:09.421Z,31.46
2022-08-17T16:50:36.785Z,31.57
2022-08-17T16:53:16.206Z,32.06
2022-08-17T16:55:51.948Z,32.66
2022-08-17T16:58:20.038Z,33.03
2022-08-17T17:00:48.751Z,34.65
2022-08-17T17:03:21.739Z,32.79
2022-08-17T17:06:06.584Z,32.79
2022-08-17T17:08:44.493Z,32.87
2022-08-17T17:11:26.924Z,32.41
2022-08-17T17:14:01.453Z,33.93
2022-08-17T17:16:35.457Z,33.83
2022-08-17T17:19:09.439Z,35.81
2022-08-17T17:21:57.068Z,36.28
2022-08-17T17:24:34.367Z,37.44
2022-08-17T17:27:21.117Z,38.44
2022-08-17T17:30:09.950Z,38.17
2022-08-17T17:32:50.318Z,37.96
2022-08-17T17:35:23.238Z,39.23
2022-08-17T17:37:50.499Z,39.47
2022-08-17T17:40:23.142Z,39.62
2022-08-17T17:42:55.205Z,40.46
2022-08-17T17:45:33.375Z,40.62
2022-08-17T17:48:01.511Z,40.44
2022-08-17T17:50:37.025Z,41.63
2022-08-17T17:53:07.620Z,41.65
2022-08-17T17:55:56.079Z,42.44
2022-08-17T17:58:32.515Z,42.34
2022-08-17T18:01:27.403Z,42.77
2022-08-17T18:04:08.319Z,43.28
2022-08-17T18:07:05.440Z,44.31
2022-08-17T18:09:51.670Z,44.65
2022-08-17T18:12:22.033Z,44.83
2022-08-17T18:15:10.998Z,44.78
2022-08-17T18:17:38.032Z,44.63
2022-08-17T18:20:08.487Z,44.96
2022-08-17T18:22:37.167Z,45.34
2022-08-17T18:25:38.990Z,46.07
2022-08-17T18:28:07.932Z,45.86
2022-08-17T18:30:35.000Z,45.96
2022-08-17T18:33:23.745Z,46.55
2022-08-17T18:35:58.877Z,46.79
2022-08-17T18:38:41.462Z,48.82
2022-08-17T18:41:30.703Z,49.32
2022-08-17T18:44:04.377Z,48.98
2022-08-17T18:46:35.943Z,49.17
2022-08-17T18:49:08.532Z,49.08
2022-08-17T18:51:43.256Z,48.56
2022-08-17T18:54:21.168Z,49.15
2022-08-17T18:56:59.020Z,49.63
2022-08-17T18:59:29.930Z,48.95
2022-08-17T19:01:59.882Z,48.66
2022-08-17T19:04:42.446Z,49.97
2022-08-17T19:07:12.070Z,50.13
2022-08-17T19:09:43.824Z,50.08
2022-08-17T19:12:21.614Z,51.23
2022-08-17T19:14:53.873Z,50.89
2022-08-17T19:17:47.639Z,51.52
2022-08-17T19:20:19.688Z,51.82
2022-08-17T19:23:15.531Z,53.17
2022-08-17T19:25:48.827Z,52.63
2022-08-17T19:28:37.514Z,52.58
2022-08-17T19:31:10.080Z,55.36
2022-08-17T19:33:37.556Z,54.71
2022-08-17T19:36:08.742Z,53.74
2022-08-17T19:38:53.772Z,54.37
2022-08-17T19:41:34.340Z,54.93
2022-08-17T19:44:14.189Z,55.28
2022-08-17T19:47:36.654Z,55.73
2022-08-17T19:50:30.322Z,54.65
2022-08-17T19:53:07.225Z,55.35
2022-08-17T19:55:50.989Z,54.95
2022-08-17T19:58:34.435Z,57.15
2022-08-17T20:01:01.657Z,55.12
2022-08-17T20:03:35.650Z,54.99
2022-08-17T20:06:15.089Z,55.27
2022-08-17T20:08:53.887Z,55.68
2022-08-17T20:11:28.313Z,55.59
2022-08-17T20:14:00.535Z,55.00
2022-08-17T20:16:28.594Z,55.17
2022-08-17T20:19:06.343Z,55.20
2022-08-17T20:21:42.536Z,56.03
2022-08-17T20:24:40.432Z,55.83
2022-08-17T20:27:18.956Z,56.62
2022-08-17T20:30:11.510Z,56.29
2022-08-17T20:32:51.860Z,55.92
2022-08-17T20:35:27.366Z,55.71
2022-08-17T20:38:04.318Z,55.92
2022-08-17T20:41:00.686Z,56.11
2022-08-17T20:43:34.523Z,56.77
2022-08-17T20:46:24.424Z,57.25
2022-08-17T20:48:55.224Z,56.85
2022-08-17T20:51:32.524Z,57.06
2022-08-17T20:54:06.556Z,56.20
2022-08-17T20:56:56.164Z,56.82
2022-08-17T20:59:25.694Z,56.47
2022-08-17T21:02:17.663Z,57.38
2022-08-17T21:04:56.825Z,57.50
2022-08-17T21:07:52.496Z,57.88
2022-08-17T21:10:25.836Z,56.79
2022-08-17T21:13:00.340Z,56.88
2022-08-17T21:15:29.435Z,58.07
2022-08-17T21:18:31.838Z,59.13
2022-08-17T21:21:21.794Z,60.17
2022-08-17T21:24:07.609Z,60.14
2022-08-17T21:26:55.087Z,59.37
2022-08-17T21:29:31.489Z,59.36
2022-08-17T21:31:59.730Z,59.37
2022-08-17T21:34:29.225Z,59.46
2022-08-17T21:36:56.797Z,59.49
2022-08-17T21:39:33.209Z,58.86
2022-08-17T21:42:00.689Z,59.03
2022-08-17T21:44:33.953Z,58.49
2022-08-17T21:47:22.031Z,60.05
2022-08-17T21:49:49.883Z,59.63
2022-08-17T21:52:22.224Z,58.57
2022-08-17T21:54:57.996Z,59.06
2022-08-17T21:57:27.598Z,61.69
2022-08-17T21:59:57.925Z,62.17
2022-08-17T22:05:36.446Z,61.72
2022-08-17T22:08:16.583Z,61.41
2022-08-17T22:10:46.204Z,55.15
2022-08-17T22:13:17.687Z,55.35
2022-08-17T22:15:48.393Z,53.79
2022-08-17T22:18:27.835Z,54.11
2022-08-17T22:21:01.030Z,55.66
2022-08-17T22:23:55.517Z,55.74
2022-08-17T22:26:27.773Z,56.11
2022-08-17T22:28:57.889Z,56.52
2022-08-17T22:31:27.807Z,57.96
2022-08-17T22:34:00.156Z,60.88
2022-08-17T22:36:29.179Z,62.34
2022-08-17T22:39:02.389Z,63.19
2022-08-17T22:41:50.946Z,71.33
2022-08-17T22:44:26.107Z,73.52
2022-08-17T22:46:55.340Z,77.85
2022-08-17T22:49:26.703Z,78.86
2022-08-17T22:52:06.909Z,82.40
2022-08-17T22:55:00.030Z,79.94
2022-08-17T22:57:54.723Z,79.33
2022-08-17T23:00:38.129Z,79.80
2022-08-17T23:03:13.620Z,81.49
2022-08-17T23:05:46.066Z,84.91
2022-08-17T23:08:14.229Z,85.19
2022-08-17T23:10:41.850Z,83.19
2022-08-17T23:13:11.888Z,85.37
2022-08-17T23:15:41.612Z,84.63
2022-08-17T23:18:09.641Z,83.78
2022-08-17T23:20:37.886Z,86.64
2022-08-17T23:23:06.769Z,85.16
2022-08-17T23:25:35.093Z,86.38
2022-08-17T23:28:06.116Z,87.88
2022-08-17T23:30:39.305Z,91.16
2022-08-17T23:33:09.225Z,89.76
2022-08-17T23:35:39.198Z,92.19
2022-08-17T23:38:12.617Z,93.08
2022-08-17T23:40:40.091Z,91.60
2022-08-17T23:43:23.607Z,96.13
2022-08-17T23:45:54.594Z,97.69
2022-08-17T23:48:36.031Z,96.40
2022-08-17T23:51:09.941Z,95.57
2022-08-17T23:53:41.862Z,92.06
2022-08-17T23:56:11.245Z,91.78
2022-08-17T23:58:43.376Z,89.21
